Time;durP1;ratioP1;P1;durP2;ratioP2;P2;SDS_P1;SDS_P2;PMS_P1;PMS_P2;Temp;Humidity;BMP_temperature;BMP_pressure;BME280_temperature;BME280_humidity;BME280_pressure;Samples;Min_cycle;Max_cycle;Signal;HPM_P1;HPM_P2
2022/06/18 00:00:23;;;;;;;5.78;2.70;;;24.10;95.10;;;;;;5045575;28;20029;-39
2022/06/18 00:02:49;;;;;;;2.25;2.05;;;24.10;95.20;;;;;;5036219;28;20064;-39
2022/06/18 00:05:16;;;;;;;3.33;2.78;;;24.00;95.20;;;;;;5048675;28;20442;-39
2022/06/18 00:07:49;;;;;;;3.25;2.30;;;24.00;95.30;;;;;;5040667;28;20469;-29
2022/06/18 00:10:24;;;;;;;4.60;2.67;;;23.90;95.40;;;;;;5055572;28;20108;-27
2022/06/18 00:15:39;;;;;;;4.43;2.65;;;23.80;95.60;;;;;;5046320;28;20048;-30
2022/06/18 00:18:10;;;;;;;5.88;2.65;;;23.80;95.70;;;;;;5035156;28;20033;-28
2022/06/18 00:20:38;;;;;;;4.57;2.75;;;23.80;95.80;;;;;;5040276;28;20034;-41
2022/06/18 00:23:10;;;;;;;5.18;2.72;;;23.70;95.90;;;;;;5052720;28;20405;-29
2022/06/18 00:25:39;;;;;;;6.35;2.75;;;23.70;96.00;;;;;;5048343;28;20029;-29
2022/06/18 00:28:13;;;;;;;4.93;2.60;;;23.60;96.10;;;;;;5042884;28;20472;-33
2022/06/18 00:30:39;;;;;;;4.43;2.40;;;23.60;96.20;;;;;;5038522;28;20064;-34
2022/06/18 00:33:05;;;;;;;11.60;2.58;;;23.60;96.30;;;;;;5037683;28;20106;-31
2022/06/18 00:35:30;;;;;;;6.18;2.38;;;23.50;96.30;;;;;;5049486;28;20105;-30
2022/06/18 00:37:58;;;;;;;3.35;2.20;;;23.50;96.40;;;;;;5050938;28;20381;-35
2022/06/18 00:40:39;;;;;;;5.07;2.60;;;23.40;96.50;;;;;;5053604;28;20056;-29
2022/06/18 00:43:18;;;;;;;5.15;2.47;;;23.30;96.60;;;;;;5050970;28;20476;-29
2022/06/18 00:45:44;;;;;;;4.10;2.65;;;23.20;96.80;;;;;;5039343;28;20045;-29
2022/06/18 00:48:27;;;;;;;9.15;2.97;;;23.20;96.90;;;;;;5042680;28;20477;-31
2022/06/18 00:51:09;;;;;;;5.75;3.00;;;23.20;97.10;;;;;;5041329;28;20017;-47
2022/06/18 00:53:46;;;;;;;6.55;2.90;;;23.10;97.20;;;;;;5020141;28;20465;-37
2022/06/18 00:56:23;;;;;;;3.72;2.53;;;23.10;97.20;;;;;;5038594;28;20495;-36
2022/06/18 00:58:57;;;;;;;11.18;2.60;;;23.10;97.20;;;;;;5035777;28;20030;-36
2022/06/18 01:01:31;;;;;;;3.58;2.75;;;23.10;97.30;;;;;;5038222;28;20040;-37
2022/06/18 01:03:57;;;;;;;6.55;2.45;;;23.00;97.70;;;;;;5040489;28;20033;-36
2022/06/18 01:06:28;;;;;;;7.38;3.05;;;23.00;97.60;;;;;;5040787;28;20323;-36
2022/06/18 01:09:04;;;;;;;3.35;2.60;;;22.90;97.70;;;;;;5035017;28;20076;-36
2022/06/18 01:11:35;;;;;;;2.47;2.20;;;22.90;97.80;;;;;;5042877;28;20059;-37
2022/06/18 01:14:04;;;;;;;3.08;2.78;;;22.80;97.90;;;;;;5047796;28;20024;-37
2022/06/18 01:16:32;;;;;;;3.50;2.20;;;22.80;98.10;;;;;;5035441;28;20474;-41
2022/06/18 01:18:57;;;;;;;13.15;3.08;;;22.80;98.20;;;;;;5051494;28;20568;-36
2022/06/18 01:21:50;;;;;;;3.38;2.90;;;22.80;98.10;;;;;;5045922;28;20112;-32
2022/06/18 01:24:21;;;;;;;4.80;3.75;;;22.70;98.40;;;;;;5046444;28;20031;-29
2022/06/18 01:26:50;;;;;;;4.90;3.03;;;22.50;98.60;;;;;;5041522;28;20032;-31
2022/06/18 01:29:16;;;;;;;3.95;2.75;;;22.50;98.70;;;;;;5051272;28;20552;-30
2022/06/18 01:31:42;;;;;;;5.38;2.83;;;22.50;98.80;;;;;;5035810;28;20108;-29
2022/06/18 01:34:09;;;;;;;6.18;3.45;;;22.40;98.90;;;;;;5036619;28;20057;-35
2022/06/18 01:36:37;;;;;;;2.95;2.70;;;22.40;99.10;;;;;;5044379;28;20013;-28
2022/06/18 01:39:06;;;;;;;4.30;2.47;;;22.30;99.20;;;;;;5048387;28;20033;-30
2022/06/18 01:41:49;;;;;;;8.02;3.50;;;22.30;99.30;;;;;;5050529;28;20030;-37
2022/06/18 01:44:22;;;;;;;6.53;3.55;;;22.20;99.40;;;;;;5037139;28;20536;-31
2022/06/18 01:46:51;;;;;;;7.35;3.00;;;22.20;99.60;;;;;;5043696;28;20029;-29
2022/06/18 01:49:22;;;;;;;4.85;3.30;;;22.20;99.70;;;;;;5050771;28;20469;-38
2022/06/18 01:51:50;;;;;;;3.22;2.67;;;22.10;99.70;;;;;;5040482;28;20066;-66
2022/06/18 01:54:25;;;;;;;5.00;3.17;;;22.10;99.90;;;;;;5051337;28;20535;-36
2022/06/18 01:57:11;;;;;;;6.03;3.33;;;22.00;99.90;;;;;;5036803;28;20021;-35
2022/06/18 01:59:43;;;;;;;7.82;3.83;;;22.00;99.90;;;;;;5047305;28;20025;-32
2022/06/18 02:02:09;;;;;;;8.07;3.53;;;22.00;99.90;;;;;;5036994;28;20030;-31
2022/06/18 02:04:35;;;;;;;3.25;2.95;;;21.90;99.90;;;;;;5046234;28;20033;-32
2022/06/18 02:07:03;;;;;;;5.80;3.20;;;21.90;99.90;;;;;;5053947;28;20098;-38
2022/06/18 02:09:45;;;;;;;6.50;3.65;;;21.90;99.90;;;;;;5033779;28;20034;-38
2022/06/18 02:12:16;;;;;;;4.40;2.95;;;21.80;99.90;;;;;;5035071;28;20040;-38
2022/06/18 02:14:46;;;;;;;5.05;3.50;;;21.80;99.90;;;;;;5042582;28;20029;-34
2022/06/18 02:17:17;;;;;;;11.07;3.88;;;21.70;99.90;;;;;;5039904;28;20132;-57
2022/06/18 02:20:04;;;;;;;4.50;3.72;;;21.70;99.90;;;;;;5048849;28;20039;-37
2022/06/18 02:22:36;;;;;;;11.95;4.25;;;21.70;99.90;;;;;;5039471;28;20497;-38
2022/06/18 02:25:02;;;;;;;7.32;3.70;;;21.70;99.90;;;;;;5046778;28;20091;-50
2022/06/18 02:27:28;;;;;;;8.32;3.67;;;21.60;99.90;;;;;;5043652;28;20037;-38
2022/06/18 02:29:54;;;;;;;6.82;3.60;;;21.60;99.90;;;;;;5048507;28;20503;-37
2022/06/18 02:32:48;;;;;;;5.43;3.15;;;21.60;99.90;;;;;;5034266;28;20426;-37
2022/06/18 02:35:15;;;;;;;4.68;3.65;;;21.50;99.90;;;;;;5034366;28;20520;-47
2022/06/18 02:37:42;;;;;;;4.53;3.63;;;21.40;99.90;;;;;;5033714;28;20041;-37
2022/06/18 02:40:18;;;;;;;7.68;3.53;;;21.40;99.90;;;;;;5046128;28;20048;-36
2022/06/18 02:42:44;;;;;;;6.73;3.57;;;21.40;99.90;;;;;;5033655;28;20028;-38
2022/06/18 02:45:10;;;;;;;8.35;4.13;;;21.30;99.90;;;;;;5034063;28;20296;-36
2022/06/18 02:47:36;;;;;;;6.78;3.97;;;21.30;99.90;;;;;;5041526;28;20055;-31
2022/06/18 02:50:05;;;;;;;10.73;4.15;;;21.30;99.90;;;;;;5040143;28;20561;-33
2022/06/18 02:52:36;;;;;;;6.22;4.20;;;21.20;99.90;;;;;;5034472;28;20516;-30
2022/06/18 02:55:28;;;;;;;6.85;4.43;;;21.20;99.90;;;;;;5051941;28;20469;-31
2022/06/18 02:58:17;;;;;;;5.47;3.65;;;21.20;99.90;;;;;;5033648;28;20045;-46
2022/06/18 03:00:45;;;;;;;7.45;3.63;;;21.20;99.90;;;;;;5043140;28;20438;-36
2022/06/18 03:03:13;;;;;;;4.43;3.33;;;21.20;99.90;;;;;;5048856;28;20040;-37
2022/06/18 03:05:39;;;;;;;6.72;4.25;;;21.20;99.90;;;;;;5044634;28;20025;-36
2022/06/18 03:08:05;;;;;;;5.88;3.80;;;21.10;99.90;;;;;;5036684;28;20018;-32
2022/06/18 03:13:18;;;;;;;7.07;4.10;;;21.00;99.90;;;;;;5032861;28;20476;-37
2022/06/18 03:15:46;;;;;;;5.68;3.42;;;21.00;99.90;;;;;;5036522;28;20063;-37
2022/06/18 03:18:12;;;;;;;8.90;4.07;;;20.90;99.90;;;;;;5052787;28;20033;-37
2022/06/18 03:20:48;;;;;;;9.40;4.10;;;20.90;99.90;;;;;;5041561;28;20025;-39
2022/06/18 03:23:16;;;;;;;6.35;4.03;;;20.90;99.90;;;;;;5032589;28;20396;-37
2022/06/18 03:25:41;;;;;;;5.05;3.97;;;20.80;99.90;;;;;;5033836;28;20393;-37
2022/06/18 03:28:11;;;;;;;10.60;4.13;;;20.80;99.90;;;;;;5049509;28;20039;-36
2022/06/18 03:30:39;;;;;;;5.13;3.42;;;20.80;99.90;;;;;;5046575;28;20496;-35
2022/06/18 03:33:05;;;;;;;17.10;3.75;;;20.80;99.90;;;;;;5035509;28;20026;-37
2022/06/18 03:35:30;;;;;;;12.30;5.43;;;20.80;99.90;;;;;;5042861;28;20420;-38
2022/06/18 03:37:56;;;;;;;15.30;5.25;;;20.80;99.90;;;;;;5046339;28;20035;-33
2022/06/18 03:40:22;;;;;;;16.10;5.00;;;20.70;99.90;;;;;;5045814;28;20108;-29
2022/06/18 03:42:48;;;;;;;15.98;4.45;;;20.60;99.90;;;;;;5040957;28;20497;-30
2022/06/18 03:45:13;;;;;;;14.57;4.45;;;20.60;99.90;;;;;;5049888;28;20029;-42
2022/06/18 03:47:39;;;;;;;11.25;6.03;;;20.60;99.90;;;;;;5033049;28;20075;-32
2022/06/18 03:50:05;;;;;;;12.45;5.18;;;20.50;99.90;;;;;;5043517;28;20038;-30
2022/06/18 03:52:31;;;;;;;7.43;4.15;;;20.50;99.90;;;;;;5034455;28;20033;-27
2022/06/18 03:54:57;;;;;;;20.20;4.40;;;20.50;99.90;;;;;;5046700;28;20041;-31
2022/06/18 03:57:23;;;;;;;10.02;4.85;;;20.40;99.90;;;;;;5032998;28;20030;-30
2022/06/18 03:59:48;;;;;;;12.93;5.57;;;20.40;99.90;;;;;;5031356;28;20030;-31
2022/06/18 04:02:14;;;;;;;8.93;5.10;;;20.40;99.90;;;;;;5032228;28;20033;-28
2022/06/18 04:04:40;;;;;;;5.97;4.60;;;20.40;99.90;;;;;;5034640;28;20082;-37
2022/06/18 04:07:05;;;;;;;12.00;4.95;;;20.30;99.90;;;;;;5051332;28;20033;-28
2022/06/18 04:09:31;;;;;;;9.85;4.72;;;20.30;99.90;;;;;;5047846;28;20557;-27
2022/06/18 04:11:58;;;;;;;17.30;5.43;;;20.20;99.90;;;;;;5044580;28;20035;-32
2022/06/18 04:14:24;;;;;;;12.50;4.70;;;20.10;99.90;;;;;;5046095;28;20021;-30
2022/06/18 04:16:50;;;;;;;15.63;4.85;;;20.10;99.90;;;;;;5052708;28;20477;-31
2022/06/18 04:19:16;;;;;;;14.30;5.00;;;20.10;99.90;;;;;;5037979;28;20075;-35
2022/06/18 04:21:42;;;;;;;10.70;5.05;;;20.00;99.90;;;;;;5039257;28;20040;-33
2022/06/18 04:24:08;;;;;;;15.20;6.53;;;20.00;99.90;;;;;;5046104;28;20030;-35
2022/06/18 04:26:33;;;;;;;19.77;5.28;;;19.90;99.90;;;;;;5042671;28;20071;-36
2022/06/18 04:28:59;;;;;;;12.30;5.28;;;19.90;99.90;;;;;;5046327;28;20056;-29
2022/06/18 04:31:24;;;;;;;12.55;5.68;;;19.90;99.90;;;;;;5031163;28;20042;-28
2022/06/18 04:33:50;;;;;;;9.88;4.70;;;19.90;99.90;;;;;;5047856;28;20033;-27
2022/06/18 04:36:32;;;;;;;18.02;5.88;;;19.90;99.90;;;;;;5037706;28;20084;-31
2022/06/18 04:38:58;;;;;;;14.13;5.07;;;19.90;99.90;;;;;;5044260;28;20488;-27
2022/06/18 04:41:23;;;;;;;12.15;5.50;;;19.90;99.90;;;;;;5049861;28;20073;-37
2022/06/18 04:43:49;;;;;;;19.73;5.82;;;19.90;99.90;;;;;;5049791;28;20025;-36
2022/06/18 04:46:14;;;;;;;12.82;5.72;;;19.80;99.90;;;;;;5035731;28;20109;-37
2022/06/18 04:48:40;;;;;;;16.17;5.90;;;19.80;99.90;;;;;;5048229;28;20084;-37
2022/06/18 04:51:06;;;;;;;8.80;5.22;;;19.80;99.90;;;;;;5035846;28;20025;-36
2022/06/18 04:53:32;;;;;;;24.92;6.10;;;19.80;99.90;;;;;;5036536;28;20450;-36
2022/06/18 04:55:57;;;;;;;13.95;5.68;;;19.80;99.90;;;;;;5044872;28;20547;-37
2022/06/18 04:58:23;;;;;;;16.25;5.97;;;19.80;99.90;;;;;;5035110;28;20381;-39
2022/06/18 05:00:49;;;;;;;18.10;4.85;;;19.90;99.90;;;;;;5035665;28;20029;-69
2022/06/18 05:03:17;;;;;;;14.85;5.65;;;19.90;99.90;;;;;;5050212;28;20033;-27
2022/06/18 05:05:42;;;;;;;16.58;5.25;;;20.00;99.90;;;;;;5039811;28;20100;-30
2022/06/18 05:08:08;;;;;;;10.55;5.00;;;20.10;99.90;;;;;;5042566;28;20108;-28
2022/06/18 05:10:34;;;;;;;17.92;5.63;;;20.10;99.90;;;;;;5044524;28;20041;-37
2022/06/18 05:13:01;;;;;;;16.25;6.05;;;20.20;99.90;;;;;;5036993;28;20029;-30
2022/06/18 05:15:26;;;;;;;16.02;5.70;;;20.30;99.90;;;;;;5054743;28;20098;-28
2022/06/18 05:17:52;;;;;;;13.65;5.30;;;20.30;99.90;;;;;;5036822;28;20104;-29
2022/06/18 05:20:22;;;;;;;13.05;5.30;;;20.30;99.90;;;;;;5045558;28;20031;-28
2022/06/18 05:22:47;;;;;;;20.33;6.20;;;20.30;99.90;;;;;;5042684;28;20036;-32
2022/06/18 05:25:14;;;;;;;16.83;5.60;;;20.20;99.90;;;;;;5051234;28;20029;-31
2022/06/18 05:27:41;;;;;;;16.05;6.07;;;20.20;99.90;;;;;;5052943;28;20466;-29
2022/06/18 05:30:10;;;;;;;19.20;5.85;;;20.10;99.90;;;;;;5047076;28;20171;-30
2022/06/18 05:32:36;;;;;;;18.38;6.05;;;20.20;99.90;;;;;;5045009;28;20028;-48
2022/06/18 05:35:02;;;;;;;28.35;5.82;;;20.30;99.90;;;;;;5048798;28;20025;-37
2022/06/18 05:37:30;;;;;;;24.27;6.30;;;20.30;99.90;;;;;;5048878;28;20103;-37
2022/06/18 05:39:56;;;;;;;9.95;4.82;;;20.40;99.90;;;;;;5043137;28;20481;-43
2022/06/18 05:42:21;;;;;;;14.00;5.65;;;20.40;99.90;;;;;;5037441;28;20033;-37
2022/06/18 05:44:48;;;;;;;15.90;5.35;;;20.40;99.90;;;;;;5042482;28;20029;-37
2022/06/18 05:47:15;;;;;;;18.48;6.75;;;20.50;99.90;;;;;;5040386;28;20032;-36
2022/06/18 05:49:41;;;;;;;14.75;6.10;;;20.50;99.90;;;;;;5043804;28;20478;-36
2022/06/18 05:52:08;;;;;;;10.77;6.03;;;20.60;99.90;;;;;;5035015;28;20402;-37
2022/06/18 05:54:34;;;;;;;14.37;6.80;;;20.70;99.90;;;;;;5043645;28;20018;-38
2022/06/18 05:56:59;;;;;;;16.52;6.45;;;20.60;99.90;;;;;;5044707;28;20017;-39
2022/06/18 05:59:25;;;;;;;24.52;6.75;;;20.60;99.90;;;;;;5048097;28;20024;-38
2022/06/18 06:01:51;;;;;;;18.50;6.78;;;20.70;99.90;;;;;;5042465;28;20025;-37
2022/06/18 06:04:19;;;;;;;25.88;7.07;;;20.80;99.90;;;;;;5039366;28;20527;-38
2022/06/18 06:06:45;;;;;;;22.17;6.95;;;20.80;99.90;;;;;;5044133;28;20134;-37
2022/06/18 06:09:12;;;;;;;22.88;7.05;;;20.80;99.90;;;;;;5035508;28;20129;-36
2022/06/18 06:11:38;;;;;;;17.92;5.60;;;21.20;99.90;;;;;;5051275;28;20474;-36
2022/06/18 06:14:05;;;;;;;17.73;6.90;;;21.90;99.90;;;;;;5047320;28;20025;-38
2022/06/18 06:16:31;;;;;;;17.90;6.50;;;22.30;99.90;;;;;;5044116;28;20496;-38
2022/06/18 06:18:57;;;;;;;24.00;6.90;;;22.70;99.90;;;;;;5048635;28;20044;-35
2022/06/18 06:21:22;;;;;;;11.90;5.45;;;23.50;99.90;;;;;;5038971;28;20033;-38
2022/06/18 06:23:49;;;;;;;12.82;5.30;;;24.40;99.90;;;;;;5051137;28;20056;-38
2022/06/18 06:26:21;;;;;;;18.15;6.03;;;25.40;99.90;;;;;;5054370;28;20495;-37
2022/06/18 06:28:47;;;;;;;16.40;5.28;;;26.30;99.90;;;;;;5051174;28;20048;-38
2022/06/18 06:31:13;;;;;;;18.08;5.60;;;27.00;99.90;;;;;;5047162;28;20025;-37
2022/06/18 06:33:40;;;;;;;12.10;4.75;;;27.50;99.90;;;;;;5031881;28;20032;-38
2022/06/18 06:36:06;;;;;;;9.70;4.67;;;27.80;99.90;;;;;;5033793;28;20438;-38
2022/06/18 06:38:32;;;;;;;14.75;5.82;;;28.30;99.90;;;;;;5043268;28;20291;-38
2022/06/18 06:40:59;;;;;;;11.85;5.47;;;28.30;98.90;;;;;;5043503;28;20051;-38
2022/06/18 06:43:25;;;;;;;14.35;5.60;;;28.10;98.60;;;;;;5034394;28;20030;-39
2022/06/18 06:45:50;;;;;;;16.75;5.97;;;28.00;98.40;;;;;;5033508;28;20049;-34
2022/06/18 06:48:16;;;;;;;12.05;4.07;;;27.80;99.00;;;;;;5038645;28;20079;-39
2022/06/18 06:50:43;;;;;;;17.63;6.07;;;27.40;99.10;;;;;;5044252;28;20033;-36
2022/06/18 06:53:10;;;;;;;13.05;5.30;;;26.80;99.40;;;;;;5036751;28;20074;-36
2022/06/18 06:58:41;;;;;;;15.70;6.32;;;25.70;99.90;;;;;;5051203;28;20459;-39
2022/06/18 07:01:07;;;;;;;16.42;6.90;;;25.20;99.90;;;;;;5042288;28;20393;-38
2022/06/18 07:03:33;;;;;;;19.30;5.88;;;25.00;99.90;;;;;;5031512;28;20034;-37
2022/06/18 07:06:01;;;;;;;18.77;4.93;;;25.00;99.90;;;;;;5038200;28;20115;-38
2022/06/18 07:08:27;;;;;;;15.82;5.50;;;25.10;99.90;;;;;;5035215;28;20641;-37
2022/06/18 07:10:53;;;;;;;15.75;4.95;;;25.30;99.90;;;;;;5044917;28;20032;-31
2022/06/18 07:13:19;;;;;;;12.20;5.53;;;25.60;99.90;;;;;;5044000;28;20025;-34
2022/06/18 07:15:46;;;;;;;11.65;5.28;;;26.10;99.90;;;;;;5038339;28;20061;-29
2022/06/18 07:18:16;;;;;;;17.27;5.13;;;26.80;99.90;;;;;;5036437;28;20029;-32
2022/06/18 07:20:42;;;;;;;10.65;4.82;;;27.20;99.80;;;;;;5036407;28;20516;-33
2022/06/18 07:23:08;;;;;;;12.98;4.93;;;27.40;99.20;;;;;;5040616;28;20029;-37
2022/06/18 07:25:53;;;;;;;15.85;6.18;;;27.70;99.10;;;;;;5046496;28;20536;-39
2022/06/18 07:28:18;;;;;;;17.70;5.18;;;27.60;99.50;;;;;;5032644;28;20132;-38
2022/06/18 07:30:46;;;;;;;12.80;5.65;;;27.30;99.70;;;;;;5040011;28;20108;-37
2022/06/18 07:33:17;;;;;;;16.35;5.25;;;26.80;99.90;;;;;;5045113;28;20024;-39
2022/06/18 07:35:43;;;;;;;12.48;5.50;;;26.70;99.90;;;;;;5048844;28;20017;-42
2022/06/18 07:38:09;;;;;;;12.25;6.00;;;26.60;99.90;;;;;;5033420;28;20029;-53
2022/06/18 07:40:41;;;;;;;23.35;5.82;;;26.30;99.90;;;;;;5036090;28;20049;-40
2022/06/18 07:43:08;;;;;;;10.68;5.43;;;26.20;99.90;;;;;;5032320;28;20029;-32
2022/06/18 07:45:34;;;;;;;17.75;6.53;;;26.00;99.90;;;;;;5035183;28;20504;-37
2022/06/18 07:47:59;;;;;;;14.13;5.63;;;25.80;99.90;;;;;;5035438;28;20049;-40
2022/06/18 07:50:25;;;;;;;15.32;6.00;;;25.70;99.90;;;;;;5034127;28;20029;-38
2022/06/18 07:52:51;;;;;;;11.68;4.78;;;25.50;99.90;;;;;;5032536;28;20463;-39
2022/06/18 07:55:20;;;;;;;14.48;5.13;;;25.50;99.90;;;;;;5041473;28;20039;-39
2022/06/18 07:57:46;;;;;;;10.77;5.70;;;25.40;99.90;;;;;;5048666;28;20107;-39
2022/06/18 08:00:16;;;;;;;13.23;4.72;;;25.20;99.90;;;;;;5052463;28;20120;-34
2022/06/18 08:02:42;;;;;;;13.38;5.25;;;25.00;99.90;;;;;;5053192;28;20036;-34
2022/06/18 08:05:10;;;;;;;20.95;5.70;;;25.10;99.90;;;;;;5043609;28;20079;-31
2022/06/18 08:07:36;;;;;;;12.07;5.20;;;25.20;99.90;;;;;;5032876;28;20025;-31
2022/06/18 08:10:02;;;;;;;15.35;6.10;;;25.50;99.90;;;;;;5035738;28;20435;-31
2022/06/18 08:12:28;;;;;;;9.60;6.05;;;25.20;99.90;;;;;;5054478;28;20530;-36
2022/06/18 08:14:53;;;;;;;14.20;6.22;;;24.80;99.90;;;;;;5051333;28;20021;-32
2022/06/18 08:17:19;;;;;;;15.77;5.53;;;24.80;99.90;;;;;;5040834;28;20033;-30
2022/06/18 08:19:44;;;;;;;12.13;4.93;;;24.80;99.90;;;;;;5036126;28;20033;-29
2022/06/18 08:22:10;;;;;;;13.90;5.25;;;25.00;99.90;;;;;;5047999;28;20108;-38
2022/06/18 08:24:36;;;;;;;17.40;4.68;;;25.40;99.90;;;;;;5046727;28;20035;-33
2022/06/18 08:27:02;;;;;;;11.02;5.07;;;25.50;99.90;;;;;;5055340;28;20051;-29
2022/06/18 08:29:27;;;;;;;13.50;5.07;;;25.70;99.90;;;;;;5040342;28;20042;-31
2022/06/18 08:31:53;;;;;;;14.25;4.40;;;25.90;99.90;;;;;;5036527;28;20374;-35
2022/06/18 08:34:19;;;;;;;14.40;4.93;;;25.70;99.90;;;;;;5050804;28;20029;-34
2022/06/18 08:36:45;;;;;;;8.52;3.88;;;25.80;99.90;;;;;;5055312;28;20043;-34
2022/06/18 08:39:11;;;;;;;8.63;4.55;;;25.70;99.90;;;;;;5056333;28;20473;-30
2022/06/18 08:41:43;;;;;;;16.23;4.47;;;26.00;99.90;;;;;;5056160;28;20496;-33
2022/06/18 08:44:21;;;;;;;11.32;3.70;;;26.20;99.90;;;;;;5040243;28;20699;-31
2022/06/18 08:46:59;;;;;;;9.15;3.55;;;26.60;99.90;;;;;;5041300;28;20482;-30
2022/06/18 08:49:52;;;;;;;11.15;3.67;;;26.60;99.90;;;;;;5034302;28;20065;-31
2022/06/18 08:52:38;;;;;;;6.82;3.47;;;26.50;99.90;;;;;;5048918;28;20126;-32
2022/06/18 08:55:19;;;;;;;12.47;3.57;;;26.60;99.90;;;;;;5033014;28;20099;-34
2022/06/18 08:57:51;;;;;;;9.38;3.97;;;26.60;99.90;;;;;;5036661;28;20026;-35
2022/06/18 09:00:42;;;;;;;18.40;3.67;;;26.50;99.90;;;;;;5040348;28;20047;-36
2022/06/18 09:03:43;;;;;;;8.02;4.07;;;26.50;99.90;;;;;;5038493;28;20044;-32
2022/06/18 09:06:37;;;;;;;7.50;3.38;;;26.40;99.90;;;;;;5013901;28;20083;-30
2022/06/18 09:09:14;;;;;;;9.43;3.80;;;26.30;99.90;;;;;;5037416;28;20068;-47
2022/06/18 09:11:55;;;;;;;;;;;26.40;99.90;;;;;;5049158;28;20413;-31
2022/06/18 09:14:49;;;;;;;9.02;3.90;;;26.70;99.90;;;;;;5035867;28;20007;-36
2022/06/18 09:17:24;;;;;;;9.43;3.13;;;26.40;99.90;;;;;;5039834;28;20474;-34
2022/06/18 09:20:06;;;;;;;6.78;3.67;;;26.70;99.90;;;;;;5037860;28;20121;-33
2022/06/18 09:22:37;;;;;;;6.55;3.35;;;26.80;99.90;;;;;;5053862;28;20058;-30
2022/06/18 09:25:11;;;;;;;9.48;4.00;;;26.80;99.90;;;;;;5043962;28;20068;-30
2022/06/18 09:27:55;;;;;;;11.32;4.05;;;26.70;99.90;;;;;;5049181;28;20370;-31
2022/06/18 09:30:48;;;;;;;14.13;4.03;;;26.60;99.90;;;;;;5040713;28;20055;-40
2022/06/18 09:33:17;;;;;;;14.20;4.25;;;26.90;99.90;;;;;;5034920;28;20025;-39
2022/06/18 09:35:58;;;;;;;7.53;3.15;;;27.00;99.90;;;;;;5045854;28;20052;-39
2022/06/18 09:38:41;;;;;;;12.93;4.40;;;27.10;99.90;;;;;;5050320;28;20501;-39
2022/06/18 09:41:45;;;;;;;8.50;3.72;;;27.00;99.90;;;;;;5044058;28;20055;-39
2022/06/18 09:44:20;;;;;;;12.55;3.92;;;26.80;99.90;;;;;;5038052;28;20044;-40
2022/06/18 09:47:00;;;;;;;11.52;3.22;;;26.80;99.90;;;;;;5034688;28;20100;-38
2022/06/18 09:49:27;;;;;;;8.88;3.60;;;27.00;99.90;;;;;;5036074;28;20029;-33
2022/06/18 09:52:06;;;;;;;12.77;3.50;;;27.00;99.90;;;;;;5045804;28;20435;-38
2022/06/18 09:54:39;;;;;;;12.13;3.88;;;26.70;99.90;;;;;;5050113;28;20025;-31
2022/06/18 09:57:06;;;;;;;7.40;3.35;;;26.60;99.90;;;;;;5045706;28;20017;-36
2022/06/18 09:59:37;;;;;;;11.87;4.23;;;26.50;99.90;;;;;;5037111;28;20524;-33
2022/06/18 10:02:14;;;;;;;9.00;2.90;;;26.50;99.90;;;;;;5037970;28;20709;-40
2022/06/18 10:07:28;;;;;;;11.00;2.85;;;26.60;99.90;;;;;;5040770;28;20032;-36
2022/06/18 10:10:14;;;;;;;6.68;2.75;;;26.60;99.90;;;;;;5053654;28;20087;-34
2022/06/18 10:12:44;;;;;;;7.35;3.10;;;26.80;99.90;;;;;;5049781;28;20083;-33
2022/06/18 10:15:12;;;;;;;8.63;3.13;;;27.30;99.90;;;;;;5049619;28;20388;-30
2022/06/18 10:17:41;;;;;;;8.73;2.85;;;27.60;99.90;;;;;;5041759;28;20389;-35
2022/06/18 10:20:18;;;;;;;8.85;2.30;;;27.30;99.90;;;;;;5040263;28;20111;-30
2022/06/18 10:23:06;;;;;;;3.92;3.03;;;27.50;99.90;;;;;;5041608;28;20393;-32
2022/06/18 10:25:49;;;;;;;8.82;3.20;;;27.60;99.90;;;;;;5038360;28;20040;-32
2022/06/18 10:28:40;;;;;;;4.88;2.88;;;27.70;99.90;;;;;;5046355;28;20486;-32
2022/06/18 10:31:23;;;;;;;10.73;2.60;;;27.30;99.90;;;;;;5035135;28;20025;-31
2022/06/18 10:34:13;;;;;;;8.48;2.70;;;27.00;99.90;;;;;;5036476;28;20036;-35
2022/06/18 10:37:09;;;;;;;4.88;2.90;;;27.00;99.90;;;;;;5037116;28;20115;-35
2022/06/18 10:39:50;;;;;;;6.20;3.28;;;27.20;99.90;;;;;;5040447;28;20473;-35
2022/06/18 10:42:57;;;;;;;9.95;2.97;;;27.40;99.90;;;;;;5044192;28;20032;-38
2022/06/18 10:45:44;;;;;;;8.32;3.17;;;27.60;99.90;;;;;;5039931;28;20049;-32
2022/06/18 10:48:27;;;;;;;7.30;2.38;;;27.80;99.90;;;;;;5053890;28;20064;-33
2022/06/18 10:50:55;;;;;;;11.70;2.80;;;27.80;99.90;;;;;;5043763;28;20029;-34
2022/06/18 10:53:42;;;;;;;5.65;2.47;;;27.70;99.90;;;;;;5046385;28;20107;-39
2022/06/18 10:56:18;;;;;;;6.43;2.30;;;27.60;99.90;;;;;;5036795;28;20128;-40
2022/06/18 10:58:52;;;;;;;6.55;2.10;;;27.60;99.90;;;;;;5041774;28;20520;-40
2022/06/18 11:01:26;;;;;;;9.15;1.92;;;27.60;99.90;;;;;;5049838;28;20045;-37
2022/06/18 11:04:05;;;;;;;10.45;2.60;;;27.80;99.90;;;;;;5049535;28;20100;-40
2022/06/18 11:06:31;;;;;;;2.58;1.80;;;28.00;99.90;;;;;;5053578;28;20060;-40
2022/06/18 11:09:00;;;;;;;6.60;3.17;;;28.00;99.90;;;;;;5033874;28;20497;-38
2022/06/18 11:11:29;;;;;;;12.38;2.45;;;28.00;99.90;;;;;;5033420;28;20025;-40
2022/06/18 11:13:55;;;;;;;5.72;2.20;;;28.00;99.90;;;;;;5046638;28;20496;-39
2022/06/18 11:16:24;;;;;;;7.03;2.47;;;27.90;99.90;;;;;;5045672;28;20021;-38
2022/06/18 11:19:00;;;;;;;3.83;2.30;;;28.00;99.90;;;;;;5040098;28;20431;-40
2022/06/18 11:21:28;;;;;;;8.02;1.75;;;28.00;99.90;;;;;;5034682;28;20082;-38
2022/06/18 11:24:02;;;;;;;4.18;1.80;;;28.00;99.90;;;;;;5038902;28;20515;-39
2022/06/18 11:26:29;;;;;;;10.98;2.42;;;28.10;99.90;;;;;;5040425;28;20192;-48
2022/06/18 11:29:10;;;;;;;8.60;2.45;;;28.20;99.90;;;;;;5048108;28;20494;-39
2022/06/18 11:31:43;;;;;;;2.60;2.10;;;28.10;99.90;;;;;;5052360;28;20551;-39
2022/06/18 11:34:34;;;;;;;6.55;2.13;;;28.10;99.90;;;;;;5047470;28;20086;-30
2022/06/18 11:37:00;;;;;;;5.45;2.10;;;28.20;99.90;;;;;;5036975;28;20037;-30
2022/06/18 11:39:39;;;;;;;8.10;2.30;;;28.50;99.90;;;;;;5036724;28;20527;-37
2022/06/18 11:42:12;;;;;;;15.02;2.53;;;28.60;99.80;;;;;;5052700;28;20793;-35
2022/06/18 11:44:59;;;;;;;8.20;2.42;;;28.60;99.70;;;;;;5048147;28;20029;-34
2022/06/18 11:47:31;;;;;;;8.60;2.30;;;28.50;99.90;;;;;;5036057;28;20029;-34
2022/06/18 11:50:07;;;;;;;2.58;1.73;;;28.30;99.90;;;;;;5039539;28;20466;-33
2022/06/18 11:52:33;;;;;;;5.60;2.60;;;28.20;99.90;;;;;;5039475;28;20448;-34
2022/06/18 11:55:23;;;;;;;5.95;2.80;;;28.00;99.90;;;;;;5053071;28;20029;-32
2022/06/18 11:58:18;;;;;;;6.53;1.83;;;28.00;99.90;;;;;;5033630;28;20112;-36
2022/06/18 12:00:56;;;;;;;3.97;1.33;;;28.10;99.90;;;;;;5042633;28;20025;-31
2022/06/18 12:03:33;;;;;;;6.70;1.83;;;28.20;99.90;;;;;;5035190;28;20030;-34
2022/06/18 12:06:07;;;;;;;1.88;1.55;;;28.30;99.90;;;;;;5044189;28;20528;-36
2022/06/18 12:08:33;;;;;;;5.28;1.80;;;28.00;99.90;;;;;;5034667;28;20029;-34
2022/06/18 12:11:18;;;;;;;2.20;1.87;;;27.80;99.90;;;;;;5037475;28;20030;-34
2022/06/18 12:13:46;;;;;;;6.63;1.48;;;27.70;99.90;;;;;;5050113;28;20112;-36
2022/06/18 12:16:21;;;;;;;5.90;1.58;;;27.70;99.90;;;;;;5049217;28;20394;-33
2022/06/18 12:19:02;;;;;;;4.35;1.58;;;27.60;99.90;;;;;;5038578;28;20470;-37
2022/06/18 12:21:40;;;;;;;2.67;1.40;;;27.50;99.90;;;;;;5039425;28;20025;-28
2022/06/18 12:24:24;;;;;;;3.45;1.00;;;27.40;99.90;;;;;;5040104;28;20024;-29
2022/06/18 12:27:06;;;;;;;2.97;1.20;;;27.30;99.90;;;;;;5050892;28;20509;-35
2022/06/18 12:29:48;;;;;;;4.32;2.03;;;27.30;99.90;;;;;;5047133;28;20095;-32
2022/06/18 12:32:44;;;;;;;7.82;2.45;;;27.30;99.90;;;;;;5040731;28;20022;-34
2022/06/18 12:35:27;;;;;;;2.08;1.02;;;27.20;99.90;;;;;;5045374;28;20286;-34
2022/06/18 12:38:12;;;;;;;5.60;1.20;;;27.40;99.90;;;;;;5039781;28;20029;-37
2022/06/18 12:40:47;;;;;;;1.20;1.10;;;27.40;99.90;;;;;;5041409;28;20486;-32
2022/06/18 12:43:38;;;;;;;6.40;1.60;;;27.40;99.90;;;;;;5038134;28;20013;-34
2022/06/18 12:46:11;;;;;;;1.60;1.15;;;27.40;99.90;;;;;;5041662;28;20033;-35
2022/06/18 12:48:40;;;;;;;1.13;1.05;;;27.30;99.90;;;;;;5044452;28;20025;-43
2022/06/18 12:51:18;;;;;;;5.72;1.83;;;27.20;99.90;;;;;;5031956;28;20037;-29
2022/06/18 12:54:13;;;;;;;15.35;2.03;;;27.10;99.90;;;;;;5034516;28;20377;-31
2022/06/18 12:56:59;;;;;;;11.93;1.30;;;27.20;99.90;;;;;;5034141;28;20022;-33
2022/06/18 12:59:34;;;;;;;2.25;1.10;;;27.40;99.90;;;;;;5046342;28;20033;-30
2022/06/18 13:02:18;;;;;;;12.20;1.42;;;27.50;99.90;;;;;;5047819;28;20021;-37
2022/06/18 13:05:03;;;;;;;8.38;1.25;;;27.50;99.90;;;;;;5046318;28;20478;-33
2022/06/18 13:07:41;;;;;;;2.15;1.08;;;27.30;99.90;;;;;;5040019;28;20105;-30
2022/06/18 13:10:24;;;;;;;3.72;1.77;;;27.10;99.90;;;;;;5046199;28;20111;-33
2022/06/18 13:13:14;;;;;;;6.88;2.53;;;27.00;99.90;;;;;;5035516;28;20022;-33
2022/06/18 13:16:08;;;;;;;1.15;0.90;;;26.90;99.90;;;;;;5036131;28;20092;-29
2022/06/18 13:18:40;;;;;;;4.82;1.38;;;26.90;99.90;;;;;;5036942;28;20022;-37